createdAt,value
2023-04-17T00:01:42.038Z,41.00
2023-04-17T00:04:13.365Z,43.13
2023-04-17T00:06:43.444Z,42.97
2023-04-17T00:09:12.353Z,43.83
2023-04-17T00:11:39.445Z,46.77
2023-04-17T00:14:06.283Z,49.87
2023-04-17T00:16:33.202Z,42.63
2023-04-17T00:19:00.037Z,40.73
2023-04-17T00:21:26.867Z,41.20
2023-04-17T00:23:53.573Z,44.63
2023-04-17T00:26:20.363Z,45.47
2023-04-17T00:28:49.071Z,40.60
2023-04-17T00:31:16.273Z,40.13
2023-04-17T00:33:43.571Z,47.63
2023-04-17T00:36:13.683Z,49.47
2023-04-17T00:38:40.599Z,42.23
2023-04-17T00:41:07.358Z,46.37
2023-04-17T00:43:34.255Z,50.67
2023-04-17T00:46:02.094Z,42.30
2023-04-17T00:48:29.017Z,45.50
2023-04-17T00:50:56.912Z,47.27
2023-04-17T00:53:24.353Z,52.37
2023-04-17T00:55:52.186Z,49.90
2023-04-17T00:58:19.490Z,50.80
2023-04-17T01:00:46.376Z,52.53
2023-04-17T01:03:14.707Z,54.70
2023-04-17T01:05:42.269Z,49.90
2023-04-17T01:08:09.181Z,47.53
2023-04-17T01:10:36.103Z,49.80
2023-04-17T01:13:03.875Z,48.03
2023-04-17T01:15:31.080Z,48.60
2023-04-17T01:17:58.320Z,48.80
2023-04-17T01:20:31.368Z,52.80
2023-04-17T01:22:58.720Z,53.70
2023-04-17T01:25:26.067Z,53.80
2023-04-17T01:27:52.943Z,56.27
2023-04-17T01:30:20.231Z,50.17
2023-04-17T01:33:01.267Z,59.07
2023-04-17T01:35:28.763Z,51.80
2023-04-17T01:37:55.969Z,51.43
2023-04-17T01:40:22.851Z,52.70
2023-04-17T01:42:49.716Z,55.87
2023-04-17T01:45:16.668Z,53.23
2023-04-17T01:47:44.027Z,53.07
2023-04-17T01:50:11.278Z,58.90
2023-04-17T01:52:40.019Z,50.13
2023-04-17T01:55:07.194Z,58.07
2023-04-17T01:57:34.264Z,50.40
2023-04-17T02:00:01.078Z,53.00
2023-04-17T02:02:27.876Z,55.47
2023-04-17T02:04:54.780Z,55.93
2023-04-17T02:07:21.815Z,51.43
2023-04-17T02:09:48.574Z,54.50
2023-04-17T02:12:16.017Z,57.20
2023-04-17T02:14:43.237Z,53.00
2023-04-17T02:17:10.498Z,51.30
2023-04-17T02:19:37.338Z,50.60
2023-04-17T02:22:04.428Z,50.70
2023-04-17T02:24:31.635Z,53.50
2023-04-17T02:27:00.468Z,50.87
2023-04-17T02:29:27.250Z,53.23
2023-04-17T02:31:54.237Z,51.37
2023-04-17T02:34:21.242Z,60.10
2023-04-17T02:36:51.142Z,52.20
2023-04-17T02:39:21.378Z,52.83
2023-04-17T02:41:48.113Z,56.73
2023-04-17T02:44:15.473Z,54.97
2023-04-17T02:46:42.248Z,59.63
2023-04-17T02:49:09.779Z,55.40
2023-04-17T02:51:38.165Z,59.03
2023-04-17T02:54:05.641Z,52.03
2023-04-17T02:56:32.659Z,56.13
2023-04-17T02:59:00.169Z,52.70
2023-04-17T03:01:28.110Z,55.37
2023-04-17T03:03:55.199Z,62.33
2023-04-17T03:06:24.889Z,54.30
2023-04-17T03:08:51.712Z,58.93
2023-04-17T03:11:19.334Z,55.63
2023-04-17T03:13:46.363Z,54.17
2023-04-17T03:16:14.105Z,57.73
2023-04-17T03:18:42.477Z,57.63
2023-04-17T03:21:09.504Z,63.53
2023-04-17T03:23:36.571Z,57.83
2023-04-17T03:26:03.307Z,54.00
2023-04-17T03:28:33.112Z,61.33
2023-04-17T03:31:01.347Z,61.07
2023-04-17T03:33:29.631Z,60.43
2023-04-17T03:35:58.090Z,53.53
2023-04-17T03:38:24.866Z,58.73
2023-04-17T03:40:52.364Z,59.83
2023-04-17T03:43:20.112Z,61.23
2023-04-17T03:45:46.928Z,59.77
2023-04-17T03:48:14.006Z,61.57
2023-04-17T03:50:41.742Z,65.40
2023-04-17T03:53:09.432Z,61.23
2023-04-17T03:55:36.442Z,66.57
2023-04-17T03:58:03.517Z,70.77
2023-04-17T04:00:32.917Z,68.00
2023-04-17T04:03:06.612Z,62.20
2023-04-17T04:05:39.038Z,64.37
2023-04-17T04:08:07.411Z,64.07
2023-04-17T04:10:44.319Z,61.90
2023-04-17T04:13:13.753Z,68.73
2023-04-17T04:15:43.696Z,63.60
2023-04-17T04:18:11.747Z,69.50
2023-04-17T04:20:38.564Z,61.87
2023-04-17T04:23:16.934Z,66.67
2023-04-17T04:25:44.899Z,62.63
2023-04-17T04:28:24.319Z,65.27
2023-04-17T04:30:53.786Z,58.73
2023-04-17T04:33:25.185Z,77.70
2023-04-17T04:35:52.142Z,57.17
2023-04-17T04:38:19.122Z,65.27
2023-04-17T04:40:52.579Z,70.07
2023-04-17T04:43:22.166Z,67.40
2023-04-17T04:45:51.608Z,71.27
2023-04-17T04:48:18.657Z,66.30
2023-04-17T04:50:45.689Z,72.07
2023-04-17T04:53:13.172Z,61.53
2023-04-17T04:55:46.090Z,64.17
2023-04-17T04:58:13.554Z,84.63
2023-04-17T05:00:41.408Z,75.07
2023-04-17T05:03:13.872Z,72.17
2023-04-17T05:05:42.013Z,75.30
2023-04-17T05:08:11.502Z,75.20
2023-04-17T05:10:39.090Z,71.73
2023-04-17T05:13:08.152Z,74.07
2023-04-17T05:15:34.881Z,69.67
2023-04-17T05:18:02.280Z,75.93
2023-04-17T05:20:32.713Z,78.10
2023-04-17T05:22:59.473Z,84.30
2023-04-17T05:25:26.286Z,81.60
2023-04-17T05:27:55.228Z,70.23
2023-04-17T05:30:22.228Z,78.93
2023-04-17T05:32:54.647Z,70.83
2023-04-17T05:35:38.249Z,63.50
2023-04-17T05:38:05.587Z,64.47
2023-04-17T05:40:33.446Z,67.23
2023-04-17T05:43:07.574Z,68.70
2023-04-17T05:45:35.507Z,64.90
2023-04-17T05:48:02.347Z,57.23
2023-04-17T05:50:29.271Z,64.47
2023-04-17T05:52:56.718Z,63.37
2023-04-17T05:55:27.013Z,73.67
2023-04-17T05:57:58.121Z,77.93
2023-04-17T06:00:25.308Z,81.90
2023-04-17T06:02:57.908Z,86.40
2023-04-17T06:05:32.082Z,86.70
2023-04-17T06:07:58.834Z,98.90
2023-04-17T06:10:26.801Z,96.50
2023-04-17T06:12:54.050Z,81.50
2023-04-17T06:15:21.549Z,104.47
2023-04-17T06:17:49.088Z,100.23
2023-04-17T06:20:15.894Z,94.00
2023-04-17T06:22:44.515Z,109.63
2023-04-17T06:25:11.216Z,113.63
2023-04-17T06:27:38.603Z,108.57
2023-04-17T06:30:05.849Z,119.80
2023-04-17T06:32:43.561Z,112.53
2023-04-17T06:35:11.422Z,112.13
2023-04-17T06:37:43.807Z,110.47
2023-04-17T06:40:12.482Z,107.57
2023-04-17T06:42:40.500Z,106.93
2023-04-17T06:45:12.014Z,116.37
2023-04-17T06:47:38.832Z,118.37
2023-04-17T06:50:05.996Z,117.73
2023-04-17T06:52:34.528Z,117.47
2023-04-17T06:55:02.492Z,116.40
2023-04-17T06:57:29.317Z,101.17
2023-04-17T06:59:56.317Z,119.27
2023-04-17T07:02:23.232Z,103.03
2023-04-17T07:04:50.363Z,124.67
2023-04-17T07:07:17.229Z,118.30
2023-04-17T07:09:45.412Z,121.73
2023-04-17T07:12:12.197Z,123.77
2023-04-17T07:14:40.761Z,112.30
2023-04-17T07:17:07.616Z,115.40
2023-04-17T07:19:34.490Z,121.63
2023-04-17T07:22:01.256Z,128.93
2023-04-17T07:24:27.968Z,120.63
2023-04-17T07:26:54.694Z,118.50
2023-04-17T07:29:21.388Z,124.47
2023-04-17T07:31:48.356Z,133.47
2023-04-17T07:34:15.114Z,119.67
2023-04-17T07:36:41.802Z,132.73
2023-04-17T07:39:08.470Z,137.73
2023-04-17T07:41:35.142Z,131.87
2023-04-17T07:44:03.709Z,131.77
2023-04-17T07:46:30.596Z,133.50
2023-04-17T07:48:57.340Z,116.47
2023-04-17T07:51:24.412Z,135.90
2023-04-17T07:53:51.185Z,134.97
2023-04-17T07:56:17.914Z,135.43
2023-04-17T07:58:45.397Z,131.10
2023-04-17T08:01:12.220Z,133.53
2023-04-17T08:03:41.973Z,137.87
2023-04-17T08:06:08.932Z,138.57
2023-04-17T08:08:35.627Z,134.50
2023-04-17T08:11:02.272Z,141.47
2023-04-17T08:13:32.415Z,129.23
2023-04-17T08:15:59.773Z,113.07
2023-04-17T08:18:26.456Z,133.23
2023-04-17T08:20:53.384Z,133.43
2023-04-17T08:23:20.098Z,127.83
2023-04-17T08:25:46.913Z,135.30
2023-04-17T08:28:13.602Z,122.47
2023-04-17T08:30:40.358Z,126.33
2023-04-17T08:33:07.119Z,131.13
2023-04-17T08:35:33.848Z,128.73
2023-04-17T08:38:00.719Z,125.13
2023-04-17T08:40:27.572Z,132.13
2023-04-17T08:42:54.496Z,124.90
2023-04-17T08:45:23.010Z,129.63
2023-04-17T08:47:49.798Z,123.70
2023-04-17T08:50:18.064Z,124.47
2023-04-17T08:52:48.589Z,127.17
2023-04-17T08:55:16.281Z,103.47
2023-04-17T08:57:55.228Z,116.23
2023-04-17T09:00:25.788Z,104.23
2023-04-17T09:02:54.482Z,120.43
2023-04-17T09:05:22.572Z,98.77
2023-04-17T09:08:06.886Z,96.17
2023-04-17T09:10:41.153Z,100.17
2023-04-17T09:13:08.810Z,107.27
2023-04-17T09:15:36.377Z,104.83
2023-04-17T09:18:03.757Z,94.23
2023-04-17T09:20:30.514Z,97.07
2023-04-17T09:23:01.142Z,97.87
2023-04-17T09:25:28.407Z,104.37
2023-04-17T09:27:56.892Z,90.97
2023-04-17T09:30:27.112Z,92.60
2023-04-17T09:33:02.996Z,91.37
2023-04-17T09:35:29.867Z,106.40
2023-04-17T09:37:59.424Z,83.13
2023-04-17T09:40:28.082Z,95.27
2023-04-17T09:42:54.720Z,86.77
2023-04-17T09:45:22.559Z,88.73
2023-04-17T09:47:50.295Z,86.10
2023-04-17T09:50:24.852Z,100.33
2023-04-17T09:52:52.541Z,89.17
2023-04-17T09:55:21.599Z,90.37
2023-04-17T09:57:49.163Z,80.30
2023-04-17T10:00:17.485Z,84.90
2023-04-17T10:02:44.483Z,76.17
2023-04-17T10:05:11.282Z,73.07
2023-04-17T10:07:38.825Z,78.50
2023-04-17T10:10:09.644Z,83.93
2023-04-17T10:12:37.207Z,81.07
2023-04-17T10:15:04.991Z,82.53
2023-04-17T10:17:32.513Z,78.90
2023-04-17T10:20:20.588Z,82.50
2023-04-17T10:22:57.125Z,57.17
2023-04-17T10:25:24.646Z,65.07
2023-04-17T10:27:55.206Z,50.10
2023-04-17T10:30:23.450Z,59.10
2023-04-17T10:33:09.887Z,54.97
2023-04-17T10:35:37.027Z,49.57
2023-04-17T10:38:05.574Z,43.30
2023-04-17T10:40:33.988Z,49.97
2023-04-17T10:43:06.781Z,40.77
2023-04-17T10:45:51.989Z,45.20
2023-04-17T10:48:33.336Z,42.70
2023-04-17T10:51:00.997Z,41.40
2023-04-17T10:53:37.219Z,43.53
2023-04-17T10:56:04.189Z,39.63
2023-04-17T10:58:31.929Z,44.40
2023-04-17T11:01:02.755Z,48.37
2023-04-17T11:03:30.230Z,43.43
2023-04-17T11:05:59.019Z,42.97
2023-04-17T11:08:25.853Z,34.07
2023-04-17T11:10:53.778Z,29.17
2023-04-17T11:13:20.541Z,28.23
2023-04-17T11:15:47.382Z,29.70
2023-04-17T11:18:14.853Z,26.97
2023-04-17T11:20:41.627Z,22.33
2023-04-17T11:23:08.534Z,23.23
2023-04-17T11:25:35.919Z,25.67
2023-04-17T11:28:05.006Z,24.00
2023-04-17T11:30:36.051Z,19.77
2023-04-17T11:33:04.382Z,28.83
2023-04-17T11:35:34.181Z,26.00
2023-04-17T11:38:14.587Z,22.23
2023-04-17T11:40:44.814Z,24.03
2023-04-17T11:43:11.933Z,17.03
2023-04-17T11:45:40.684Z,17.40
2023-04-17T11:48:09.043Z,15.97
2023-04-17T11:50:36.083Z,19.73
2023-04-17T11:53:03.460Z,17.77
2023-04-17T11:55:34.560Z,19.27
2023-04-17T11:58:02.987Z,21.17
2023-04-17T12:00:30.277Z,20.40
2023-04-17T12:02:58.060Z,18.00
2023-04-17T12:05:26.530Z,16.50
2023-04-17T12:07:59.272Z,15.20
2023-04-17T12:10:35.789Z,15.20
2023-04-17T12:13:02.517Z,14.63
2023-04-17T12:15:29.450Z,15.00
2023-04-17T12:17:56.217Z,14.40
2023-04-17T12:20:24.729Z,16.50
2023-04-17T12:22:52.820Z,14.60
2023-04-17T12:25:19.623Z,18.53
2023-04-17T12:27:48.814Z,13.37
2023-04-17T12:30:16.884Z,15.87
2023-04-17T12:32:48.772Z,13.47
2023-04-17T12:35:16.176Z,14.70
2023-04-17T12:37:48.693Z,12.20
2023-04-17T12:40:17.064Z,15.23
2023-04-17T12:42:49.393Z,12.97
2023-04-17T12:45:17.235Z,15.90
2023-04-17T12:47:44.037Z,15.57
2023-04-17T12:50:12.067Z,14.30
2023-04-17T12:52:39.077Z,13.27
2023-04-17T12:55:07.640Z,15.80
2023-04-17T12:57:36.010Z,16.43
2023-04-17T13:00:03.038Z,13.63
2023-04-17T13:02:30.350Z,16.00
2023-04-17T13:04:57.163Z,12.80
2023-04-17T13:07:23.870Z,14.53
2023-04-17T13:09:50.639Z,11.57
2023-04-17T13:12:17.495Z,15.27
2023-04-17T13:14:44.238Z,12.03
2023-04-17T13:17:11.079Z,13.60
2023-04-17T13:19:40.064Z,13.13
2023-04-17T13:22:07.695Z,9.60
2023-04-17T13:24:36.057Z,11.33
2023-04-17T13:27:03.670Z,12.73
2023-04-17T13:29:30.510Z,11.57
2023-04-17T13:31:57.736Z,14.23
2023-04-17T13:34:24.512Z,12.70
2023-04-17T13:36:51.524Z,12.40
2023-04-17T13:39:18.248Z,9.27
2023-04-17T13:41:45.018Z,10.47
2023-04-17T13:44:12.743Z,10.60
2023-04-17T13:46:39.797Z,10.00
2023-04-17T13:49:07.235Z,11.73
2023-04-17T13:51:33.975Z,12.77
2023-04-17T13:54:00.715Z,10.53
2023-04-17T13:56:27.585Z,10.70
2023-04-17T13:58:54.742Z,10.37
2023-04-17T14:01:21.662Z,10.30
2023-04-17T14:03:48.707Z,10.40
2023-04-17T14:06:17.871Z,8.83
2023-04-17T14:08:45.758Z,8.23
2023-04-17T14:11:13.185Z,10.93
2023-04-17T14:13:39.903Z,11.43
2023-04-17T14:16:06.935Z,11.90
2023-04-17T14:18:33.676Z,11.53
2023-04-17T14:21:01.038Z,8.37
2023-04-17T14:23:27.910Z,9.07
2023-04-17T14:25:54.580Z,11.60
2023-04-17T14:28:21.476Z,10.50
2023-04-17T14:30:48.484Z,9.47
2023-04-17T14:33:15.189Z,9.50
2023-04-17T14:35:41.857Z,6.90
2023-04-17T14:38:08.605Z,11.13
2023-04-17T14:40:35.393Z,9.30
2023-04-17T14:43:02.455Z,7.47
2023-04-17T14:45:29.171Z,6.80
2023-04-17T14:47:56.003Z,8.60
2023-04-17T14:50:22.877Z,7.63
2023-04-17T14:52:49.668Z,8.90
2023-04-17T14:55:16.418Z,7.07
2023-04-17T14:57:44.026Z,6.97
2023-04-17T15:00:10.992Z,9.30
2023-04-17T15:02:39.548Z,7.40
2023-04-17T15:05:06.766Z,8.57
2023-04-17T15:07:33.482Z,9.00
2023-04-17T15:10:00.359Z,10.03
2023-04-17T15:12:27.405Z,9.67
2023-04-17T15:14:54.219Z,6.43
2023-04-17T15:17:21.111Z,7.60
2023-04-17T15:19:47.846Z,8.90
2023-04-17T15:22:14.604Z,8.23
2023-04-17T15:24:41.315Z,15.20
2023-04-17T15:27:07.988Z,8.93
2023-04-17T15:29:34.779Z,8.77
2023-04-17T15:32:02.590Z,8.97
2023-04-17T15:34:29.369Z,9.27
2023-04-17T15:36:57.548Z,8.17
2023-04-17T15:39:24.245Z,10.73
2023-04-17T15:41:50.989Z,11.50
2023-04-17T15:44:17.771Z,12.60
2023-04-17T15:46:44.499Z,12.37
2023-04-17T15:49:11.697Z,9.53
2023-04-17T15:51:40.280Z,11.73
2023-04-17T15:54:08.587Z,8.10
2023-04-17T15:56:35.376Z,9.83
2023-04-17T15:59:02.194Z,9.67
2023-04-17T16:01:29.116Z,8.07
2023-04-17T16:03:56.023Z,9.37
2023-04-17T16:06:23.008Z,10.47
2023-04-17T16:08:49.906Z,9.37
2023-04-17T16:11:16.628Z,10.23
2023-04-17T16:13:43.368Z,8.93
2023-04-17T16:16:10.925Z,10.80
2023-04-17T16:18:37.783Z,9.33
2023-04-17T16:21:04.533Z,7.03
2023-04-17T16:23:31.268Z,9.63
2023-04-17T16:25:57.928Z,10.00
2023-04-17T16:28:24.914Z,9.73
2023-04-17T16:30:51.923Z,8.90
2023-04-17T16:33:18.857Z,9.40
2023-04-17T16:35:45.642Z,8.40
2023-04-17T16:38:12.447Z,8.90
2023-04-17T16:40:39.288Z,8.17
2023-04-17T16:43:06.172Z,8.73
2023-04-17T16:45:33.002Z,7.83
2023-04-17T16:47:59.791Z,7.47
2023-04-17T16:50:26.784Z,8.33
2023-04-17T16:52:53.699Z,9.87
2023-04-17T16:55:20.435Z,9.07
2023-04-17T16:57:48.140Z,10.33
2023-04-17T17:00:15.171Z,7.63
2023-04-17T17:02:42.100Z,7.97
2023-04-17T17:05:09.237Z,10.90
2023-04-17T17:07:36.460Z,9.67
2023-04-17T17:10:03.682Z,8.57
2023-04-17T17:12:33.953Z,9.50
2023-04-17T17:15:00.785Z,11.93
2023-04-17T17:17:27.565Z,8.37
2023-04-17T17:19:54.286Z,12.07
2023-04-17T17:22:21.127Z,10.53
2023-04-17T17:24:47.890Z,8.47
2023-04-17T17:27:15.519Z,10.57
2023-04-17T17:29:42.248Z,8.73
2023-04-17T17:32:09.518Z,10.53
2023-04-17T17:34:36.349Z,11.70
2023-04-17T17:37:03.123Z,9.77
2023-04-17T17:39:29.959Z,11.63
2023-04-17T17:41:57.904Z,10.53
2023-04-17T17:44:24.942Z,11.73
2023-04-17T17:46:51.710Z,10.13
2023-04-17T17:49:18.505Z,9.10
2023-04-17T17:51:45.220Z,10.43
2023-04-17T17:54:12.255Z,10.00
2023-04-17T17:56:39.112Z,12.27
2023-04-17T17:59:05.847Z,9.67
2023-04-17T18:01:32.617Z,8.90
2023-04-17T18:03:59.493Z,12.23
2023-04-17T18:06:26.877Z,9.30
2023-04-17T18:08:53.738Z,7.87
2023-04-17T18:11:21.407Z,10.23
2023-04-17T18:13:48.139Z,12.10
2023-04-17T18:16:14.899Z,9.90
2023-04-17T18:18:41.641Z,9.93
2023-04-17T18:21:09.062Z,12.27
2023-04-17T18:23:35.861Z,10.23
2023-04-17T18:26:03.198Z,11.00
2023-04-17T18:28:30.149Z,9.03
2023-04-17T18:30:56.880Z,8.77
2023-04-17T18:33:23.629Z,10.80
2023-04-17T18:35:50.416Z,11.67
2023-04-17T18:38:17.171Z,11.70
2023-04-17T18:40:44.209Z,8.80
2023-04-17T18:43:10.961Z,10.57
2023-04-17T18:45:37.683Z,8.33
2023-04-17T18:48:04.575Z,9.67
2023-04-17T18:50:31.404Z,9.80
2023-04-17T18:52:58.146Z,8.83
2023-04-17T18:55:24.938Z,11.33
2023-04-17T18:57:51.645Z,11.47
2023-04-17T19:00:18.722Z,10.13
2023-04-17T19:02:45.949Z,12.20
2023-04-17T19:05:12.932Z,12.67
2023-04-17T19:07:39.698Z,9.60
2023-04-17T19:10:07.294Z,10.97
2023-04-17T19:12:36.172Z,12.07
2023-04-17T19:15:03.321Z,13.70
2023-04-17T19:17:30.085Z,8.63
2023-04-17T19:19:56.947Z,9.73
2023-04-17T19:22:23.664Z,11.60
2023-04-17T19:24:53.006Z,9.47
2023-04-17T19:27:20.223Z,14.00
2023-04-17T19:29:47.531Z,12.63
2023-04-17T19:32:16.817Z,11.23
2023-04-17T19:34:44.468Z,12.63
2023-04-17T19:37:11.237Z,11.87
2023-04-17T19:39:37.943Z,11.50
2023-04-17T19:42:04.792Z,11.90
2023-04-17T19:44:31.614Z,9.70
2023-04-17T19:46:58.455Z,9.57
2023-04-17T19:49:25.246Z,10.37
2023-04-17T19:51:51.961Z,10.03
2023-04-17T19:54:18.725Z,10.63
2023-04-17T19:56:45.442Z,9.13
2023-04-17T19:59:13.582Z,10.27
2023-04-17T20:01:43.412Z,12.10
2023-04-17T20:04:10.965Z,11.00
2023-04-17T20:06:37.916Z,10.93
2023-04-17T20:09:06.378Z,11.30
2023-04-17T20:11:33.163Z,12.50
2023-04-17T20:13:59.873Z,15.60
2023-04-17T20:16:26.671Z,10.73
2023-04-17T20:18:53.457Z,11.50
2023-04-17T20:21:20.190Z,11.77
2023-04-17T20:23:47.861Z,11.00
2023-04-17T20:26:15.313Z,15.27
2023-04-17T20:28:42.185Z,15.40
2023-04-17T20:31:09.010Z,12.63
2023-04-17T20:33:35.930Z,13.63
2023-04-17T20:36:03.283Z,11.93
2023-04-17T20:38:30.046Z,12.27
2023-04-17T20:40:56.806Z,12.53
2023-04-17T20:43:23.612Z,11.83
2023-04-17T20:45:50.657Z,16.40
2023-04-17T20:48:18.973Z,14.10
2023-04-17T20:50:46.221Z,14.53
2023-04-17T20:53:13.103Z,14.33
2023-04-17T20:55:40.168Z,13.27
2023-04-17T20:58:07.162Z,11.50
2023-04-17T21:00:34.932Z,12.53
2023-04-17T21:03:02.006Z,12.70
2023-04-17T21:05:29.408Z,12.97
2023-04-17T21:07:57.844Z,12.30
2023-04-17T21:10:24.601Z,12.50
2023-04-17T21:12:52.182Z,13.93
2023-04-17T21:15:19.040Z,12.90
2023-04-17T21:17:47.952Z,13.00
2023-04-17T21:20:15.095Z,12.90
2023-04-17T21:22:41.945Z,14.10
2023-04-17T21:25:09.339Z,12.97
2023-04-17T21:27:36.316Z,16.20
2023-04-17T21:30:04.098Z,13.27
2023-04-17T21:32:31.667Z,14.70
2023-04-17T21:34:58.512Z,15.47
2023-04-17T21:37:25.276Z,16.23
2023-04-17T21:39:52.074Z,15.40
2023-04-17T21:42:19.387Z,12.93
2023-04-17T21:44:46.174Z,15.33
2023-04-17T21:47:14.738Z,15.47
2023-04-17T21:49:41.781Z,14.40
2023-04-17T21:52:08.458Z,19.37
2023-04-17T21:54:35.260Z,12.60
2023-04-17T21:57:02.330Z,12.43
2023-04-17T21:59:29.080Z,17.57
2023-04-17T22:01:56.081Z,12.57
2023-04-17T22:04:22.836Z,16.70
2023-04-17T22:06:51.850Z,15.10
2023-04-17T22:09:19.035Z,14.67
2023-04-17T22:11:46.128Z,12.30
2023-04-17T22:14:13.765Z,17.47
2023-04-17T22:16:40.821Z,14.27
2023-04-17T22:19:07.543Z,14.40
2023-04-17T22:21:34.389Z,15.53
2023-04-17T22:24:01.179Z,13.90
2023-04-17T22:26:27.913Z,19.27
2023-04-17T22:28:54.635Z,14.27
2023-04-17T22:31:21.428Z,15.57
2023-04-17T22:33:48.142Z,18.43
2023-04-17T22:36:14.903Z,15.97
2023-04-17T22:38:41.949Z,17.23
2023-04-17T22:41:08.785Z,18.70
2023-04-17T22:43:35.762Z,20.27
2023-04-17T22:46:03.160Z,20.17
2023-04-17T22:48:29.860Z,19.60
2023-04-17T22:50:56.654Z,16.13
2023-04-17T22:53:23.713Z,18.33
2023-04-17T22:56:00.630Z,17.23
2023-04-17T22:58:27.916Z,18.07
2023-04-17T23:00:54.551Z,16.23
2023-04-17T23:03:21.576Z,16.13
2023-04-17T23:05:48.377Z,16.80
2023-04-17T23:08:15.151Z,14.10
2023-04-17T23:10:41.979Z,15.50
2023-04-17T23:13:08.595Z,16.87
2023-04-17T23:15:35.420Z,17.07
2023-04-17T23:18:02.609Z,15.03
2023-04-17T23:20:29.256Z,17.53
2023-04-17T23:22:55.975Z,16.10
2023-04-17T23:25:22.755Z,14.47
2023-04-17T23:27:49.423Z,15.93
2023-04-17T23:30:16.158Z,19.13
2023-04-17T23:32:43.635Z,16.27
2023-04-17T23:35:10.425Z,18.77
2023-04-17T23:37:37.221Z,16.53
2023-04-17T23:40:04.005Z,18.90
2023-04-17T23:42:31.019Z,17.87
2023-04-17T23:44:58.419Z,16.43
2023-04-17T23:47:25.179Z,19.07
2023-04-17T23:49:51.995Z,18.03
2023-04-17T23:52:19.104Z,18.00
2023-04-17T23:54:45.843Z,16.27
2023-04-17T23:57:12.491Z,16.17
2023-04-17T23:59:40.109Z,19.00
